Time;durP1;ratioP1;P1;durP2;ratioP2;P2;SDS_P1;SDS_P2;PMS_P1;PMS_P2;Temp;Humidity;BMP_temperature;BMP_pressure;BME280_temperature;BME280_humidity;BME280_pressure;Samples;Min_cycle;Max_cycle;Signal;HPM_P1;HPM_P2
2021/10/20 00:00:43;;;;;;;11.82;9.57;;;15.90;99.90;;;;;;5097925;27;20039;-67
2021/10/20 00:03:08;;;;;;;10.90;9.82;;;15.90;99.90;;;;;;5096982;28;20062;-67
2021/10/20 00:05:34;;;;;;;13.20;9.85;;;15.90;99.90;;;;;;5125926;27;20081;-67
2021/10/20 00:08:03;;;;;;;12.48;9.52;;;15.90;99.90;;;;;;5094403;28;20036;-67
2021/10/20 00:10:28;;;;;;;11.88;9.90;;;15.90;99.90;;;;;;5128198;27;20042;-67
2021/10/20 00:12:54;;;;;;;14.68;9.00;;;15.80;99.90;;;;;;5097645;27;20043;-67
2021/10/20 00:15:22;;;;;;;14.07;9.10;;;15.90;99.90;;;;;;5098095;27;20031;-67
2021/10/20 00:17:48;;;;;;;9.90;8.85;;;15.80;99.90;;;;;;5101135;27;20390;-67
2021/10/20 00:20:18;;;;;;;9.88;8.88;;;15.90;99.90;;;;;;5094854;27;20043;-67
2021/10/20 00:22:44;;;;;;;13.13;8.90;;;15.90;99.90;;;;;;5096297;27;20050;-67
2021/10/20 00:25:11;;;;;;;9.63;8.57;;;15.90;99.90;;;;;;5093618;28;20039;-67
2021/10/20 00:27:37;;;;;;;10.75;8.45;;;15.90;99.90;;;;;;5098699;28;20170;-67
2021/10/20 00:30:04;;;;;;;10.18;8.32;;;15.90;99.90;;;;;;5097600;28;20115;-67
2021/10/20 00:32:30;;;;;;;12.90;7.65;;;15.90;99.90;;;;;;5096259;27;20083;-67
2021/10/20 00:34:55;;;;;;;12.65;7.85;;;15.90;99.90;;;;;;5127811;27;20040;-67
2021/10/20 00:37:21;;;;;;;9.27;7.85;;;15.90;99.90;;;;;;5101170;28;20122;-67
2021/10/20 00:39:46;;;;;;;8.93;7.88;;;15.90;99.90;;;;;;5096265;28;20051;-67
2021/10/20 00:42:12;;;;;;;11.30;8.18;;;15.90;99.90;;;;;;5131951;27;20032;-67
2021/10/20 00:45:05;;;;;;;9.57;8.00;;;15.90;99.90;;;;;;5103982;28;20038;-67
2021/10/20 00:47:33;;;;;;;14.50;7.18;;;15.90;99.90;;;;;;5101384;28;20046;-67
2021/10/20 00:49:58;;;;;;;8.40;7.53;;;15.80;99.90;;;;;;5107820;28;20480;-67
2021/10/20 00:52:26;;;;;;;8.90;6.82;;;15.80;99.90;;;;;;5101093;28;20032;-67
2021/10/20 00:54:54;;;;;;;8.23;7.43;;;15.80;99.90;;;;;;5104600;28;20044;-67
2021/10/20 00:57:26;;;;;;;9.50;7.30;;;15.80;99.90;;;;;;5107674;27;20105;-67
2021/10/20 00:59:53;;;;;;;9.07;7.10;;;15.80;99.90;;;;;;5112742;27;20433;-67
2021/10/20 01:02:19;;;;;;;8.75;7.78;;;15.80;99.90;;;;;;5108294;27;20054;-66
2021/10/20 01:04:47;;;;;;;9.38;6.88;;;15.70;99.90;;;;;;5103595;27;20043;-66
2021/10/20 01:07:13;;;;;;;11.00;7.22;;;15.70;99.90;;;;;;5108657;27;20044;-67
2021/10/20 01:09:39;;;;;;;11.80;7.53;;;15.70;99.90;;;;;;5109313;27;20028;-67
2021/10/20 01:12:05;;;;;;;9.85;6.60;;;15.70;99.90;;;;;;5105944;27;20039;-67
2021/10/20 01:14:31;;;;;;;10.23;7.90;;;15.70;99.90;;;;;;5113297;27;20111;-67
2021/10/20 01:16:57;;;;;;;10.32;7.80;;;15.60;99.90;;;;;;5106964;27;20047;-67
2021/10/20 01:19:24;;;;;;;8.57;6.90;;;15.60;99.90;;;;;;5106499;27;20486;-67
2021/10/20 01:21:52;;;;;;;9.02;6.90;;;15.60;99.90;;;;;;5115122;27;20493;-67
2021/10/20 01:24:19;;;;;;;11.88;7.63;;;15.60;99.90;;;;;;5106688;27;20043;-67
2021/10/20 01:26:46;;;;;;;10.20;6.60;;;15.50;99.90;;;;;;5108487;27;20442;-67
2021/10/20 01:29:11;;;;;;;9.88;7.25;;;15.50;99.90;;;;;;5107127;27;20366;-67
2021/10/20 01:31:37;;;;;;;11.07;7.32;;;15.50;99.90;;;;;;5106554;27;20043;-67
2021/10/20 01:34:03;;;;;;;7.88;6.60;;;15.50;99.90;;;;;;5109781;27;20526;-67
2021/10/20 01:36:28;;;;;;;8.45;7.35;;;15.40;99.90;;;;;;5108341;27;20036;-67
2021/10/20 01:38:54;;;;;;;9.23;6.30;;;15.40;99.90;;;;;;5105748;27;20043;-67
2021/10/20 01:41:20;;;;;;;7.80;6.97;;;15.40;99.90;;;;;;5107666;28;20071;-67
2021/10/20 01:43:48;;;;;;;10.18;6.40;;;15.30;99.90;;;;;;5107785;28;20071;-67
2021/10/20 01:46:23;;;;;;;9.55;8.07;;;15.30;99.90;;;;;;5106356;28;20050;-67
2021/10/20 01:48:49;;;;;;;8.32;6.95;;;15.30;99.90;;;;;;5108147;28;20044;-67
2021/10/20 01:51:15;;;;;;;7.15;6.45;;;15.30;99.90;;;;;;5107970;27;20036;-67
2021/10/20 01:53:42;;;;;;;8.82;7.40;;;15.30;99.90;;;;;;5106810;27;20054;-67
2021/10/20 01:56:10;;;;;;;8.35;7.55;;;15.20;99.90;;;;;;5105145;28;20047;-66
2021/10/20 01:58:35;;;;;;;7.88;6.15;;;15.20;99.90;;;;;;5109852;27;20111;-66
2021/10/20 02:01:02;;;;;;;12.38;7.50;;;15.20;99.90;;;;;;5104125;28;20131;-66
2021/10/20 02:03:28;;;;;;;8.75;7.30;;;15.20;99.90;;;;;;5108084;27;20489;-66
2021/10/20 02:05:54;;;;;;;12.98;7.28;;;15.10;99.90;;;;;;5107375;27;20047;-67
2021/10/20 02:08:21;;;;;;;11.40;7.00;;;15.10;99.90;;;;;;5103074;28;20546;-67
2021/10/20 02:10:47;;;;;;;9.13;7.88;;;15.10;99.90;;;;;;5111573;27;20043;-67
2021/10/20 02:13:12;;;;;;;7.35;6.65;;;15.10;99.90;;;;;;5107861;27;20084;-67
2021/10/20 02:15:38;;;;;;;10.65;7.72;;;15.00;99.90;;;;;;5104979;27;20543;-67
2021/10/20 02:18:03;;;;;;;10.70;6.32;;;15.00;99.90;;;;;;5108361;27;20032;-67
2021/10/20 02:20:29;;;;;;;7.25;6.55;;;15.00;99.90;;;;;;5109860;27;20625;-67
2021/10/20 02:22:55;;;;;;;8.35;6.28;;;15.00;99.90;;;;;;5111158;27;20088;-67
2021/10/20 02:25:22;;;;;;;7.80;7.00;;;14.90;99.90;;;;;;5104356;27;20047;-67
2021/10/20 02:27:49;;;;;;;11.68;8.00;;;14.90;99.90;;;;;;5108152;27;20050;-67
2021/10/20 02:30:15;;;;;;;10.98;7.50;;;14.90;99.90;;;;;;5102604;27;20088;-67
2021/10/20 02:32:41;;;;;;;10.98;7.75;;;14.90;99.90;;;;;;5105626;27;20505;-66
2021/10/20 02:35:08;;;;;;;9.07;7.00;;;14.80;99.90;;;;;;5112088;27;20050;-67
2021/10/20 02:37:34;;;;;;;8.80;7.40;;;14.80;99.90;;;;;;5110072;27;20105;-67
2021/10/20 02:40:00;;;;;;;7.63;6.93;;;14.80;99.90;;;;;;5104292;28;20110;-67
2021/10/20 02:42:26;;;;;;;13.10;8.00;;;14.80;99.90;;;;;;5140505;27;20044;-67
2021/10/20 02:44:52;;;;;;;8.43;7.53;;;14.80;99.90;;;;;;5106995;27;20047;-66
2021/10/20 02:47:18;;;;;;;9.10;7.13;;;14.70;99.90;;;;;;5108640;27;20046;-66
2021/10/20 02:49:43;;;;;;;13.48;8.82;;;14.70;99.90;;;;;;5105221;27;20051;-67
2021/10/20 02:52:09;;;;;;;8.30;7.47;;;14.80;99.90;;;;;;5105270;27;20130;-67
2021/10/20 02:54:34;;;;;;;7.80;7.00;;;14.80;99.90;;;;;;5106867;27;20035;-67
2021/10/20 02:57:00;;;;;;;7.75;6.95;;;14.80;99.90;;;;;;5089642;28;20051;-67
2021/10/20 02:59:25;;;;;;;10.38;8.32;;;14.70;99.90;;;;;;5103893;28;20539;-67
2021/10/20 03:01:51;;;;;;;9.05;7.82;;;14.70;99.90;;;;;;5106731;27;20127;-67
2021/10/20 03:04:17;;;;;;;9.18;7.68;;;14.80;99.90;;;;;;5106259;27;20040;-67
2021/10/20 03:06:42;;;;;;;10.02;7.78;;;14.80;99.90;;;;;;5106015;27;20043;-67
2021/10/20 03:09:08;;;;;;;10.50;7.47;;;14.80;99.90;;;;;;5107118;27;20035;-67
2021/10/20 03:11:34;;;;;;;9.10;7.85;;;14.70;99.90;;;;;;5105529;28;20031;-67
2021/10/20 03:13:59;;;;;;;10.13;7.78;;;14.70;99.90;;;;;;5109169;27;20039;-67
2021/10/20 03:16:25;;;;;;;7.82;7.03;;;14.70;99.90;;;;;;5130352;27;20401;-67
2021/10/20 03:18:51;;;;;;;8.77;7.97;;;14.70;99.90;;;;;;5087988;27;20385;-67
2021/10/20 03:21:16;;;;;;;9.35;7.70;;;14.70;99.90;;;;;;5104946;27;20106;-67
2021/10/20 03:23:42;;;;;;;9.82;8.43;;;14.70;99.90;;;;;;5105456;27;20459;-67
2021/10/20 03:26:07;;;;;;;12.07;8.55;;;14.70;99.90;;;;;;5108054;28;20485;-67
2021/10/20 03:28:33;;;;;;;8.57;7.68;;;14.70;99.90;;;;;;5119199;27;20036;-67
2021/10/20 03:30:59;;;;;;;11.57;8.45;;;14.70;99.90;;;;;;5098937;28;20067;-67
2021/10/20 03:33:24;;;;;;;10.50;8.38;;;14.70;99.90;;;;;;5097309;27;20032;-66
2021/10/20 03:35:50;;;;;;;14.30;8.73;;;14.70;99.90;;;;;;5096097;27;20043;-67
2021/10/20 03:38:15;;;;;;;15.50;9.10;;;14.80;99.90;;;;;;5096400;27;20051;-67
2021/10/20 03:40:41;;;;;;;9.50;7.80;;;14.70;99.90;;;;;;5093776;28;20039;-67
2021/10/20 03:43:07;;;;;;;11.95;9.25;;;14.80;99.90;;;;;;5093761;28;20469;-67
2021/10/20 03:45:32;;;;;;;11.55;9.18;;;14.80;99.90;;;;;;5095635;28;20040;-67
2021/10/20 03:47:58;;;;;;;9.65;8.45;;;14.80;99.90;;;;;;5129139;27;20027;-67
2021/10/20 03:50:24;;;;;;;11.20;9.30;;;14.80;99.90;;;;;;5096170;28;20109;-66
2021/10/20 03:52:49;;;;;;;13.00;10.20;;;14.80;99.90;;;;;;5100077;28;20515;-67
2021/10/20 03:55:15;;;;;;;15.57;9.40;;;14.80;99.90;;;;;;5127475;27;20036;-67
2021/10/20 03:57:41;;;;;;;15.27;10.35;;;14.80;99.90;;;;;;5098628;27;20044;-67
2021/10/20 04:00:13;;;;;;;16.17;9.63;;;14.80;99.90;;;;;;5098131;28;20063;-67
2021/10/20 04:02:43;;;;;;;15.70;10.23;;;14.80;99.90;;;;;;5096992;27;20044;-67
2021/10/20 04:05:14;;;;;;;10.93;9.77;;;14.80;99.90;;;;;;5096246;28;20405;-67
2021/10/20 04:07:42;;;;;;;12.85;10.20;;;14.80;99.90;;;;;;5097245;28;20055;-67
2021/10/20 04:10:10;;;;;;;12.07;9.30;;;14.90;99.90;;;;;;5104311;27;20115;-67
2021/10/20 04:12:36;;;;;;;12.82;10.07;;;14.90;99.90;;;;;;5096372;27;20067;-67
2021/10/20 04:15:14;;;;;;;11.48;9.80;;;14.90;99.90;;;;;;5094778;28;20105;-67
2021/10/20 04:17:40;;;;;;;14.57;10.43;;;14.90;99.90;;;;;;5096436;28;21336;-66
2021/10/20 04:20:07;;;;;;;16.52;10.52;;;14.90;99.90;;;;;;5125490;27;20043;-66
2021/10/20 04:22:33;;;;;;;12.93;9.40;;;14.90;99.90;;;;;;5093730;28;20043;-67
2021/10/20 04:24:59;;;;;;;13.50;9.00;;;15.00;99.90;;;;;;5099358;27;20385;-67
2021/10/20 04:27:24;;;;;;;12.18;9.45;;;15.00;99.90;;;;;;5097979;27;20043;-67
2021/10/20 04:29:50;;;;;;;13.90;10.27;;;15.00;99.90;;;;;;5097200;27;20035;-66
2021/10/20 04:32:15;;;;;;;10.63;9.52;;;15.00;99.90;;;;;;5112166;27;20524;-66
2021/10/20 04:34:42;;;;;;;13.50;10.05;;;15.00;99.90;;;;;;5099579;27;20066;-66
2021/10/20 04:37:08;;;;;;;13.50;9.85;;;15.00;99.90;;;;;;5094964;28;20051;-66
2021/10/20 04:39:33;;;;;;;12.57;9.07;;;15.00;99.90;;;;;;5096502;28;20036;-67
2021/10/20 04:41:59;;;;;;;12.48;9.35;;;15.00;99.90;;;;;;5093095;27;20047;-67
2021/10/20 04:44:25;;;;;;;13.88;9.25;;;15.10;99.90;;;;;;5097062;28;20043;-67
2021/10/20 04:46:50;;;;;;;10.85;9.70;;;15.10;99.90;;;;;;5097973;27;20084;-67
2021/10/20 04:49:16;;;;;;;12.40;9.18;;;15.00;99.90;;;;;;5098106;27;20127;-67
2021/10/20 04:51:42;;;;;;;12.13;9.75;;;15.10;99.90;;;;;;5130255;27;20036;-67
2021/10/20 04:54:07;;;;;;;12.45;9.40;;;15.10;99.90;;;;;;5097464;28;20114;-67
2021/10/20 04:56:33;;;;;;;12.18;9.73;;;15.10;99.90;;;;;;5129558;27;20058;-67
2021/10/20 04:58:59;;;;;;;11.35;9.35;;;15.10;99.90;;;;;;5101168;28;20053;-66
2021/10/20 05:01:25;;;;;;;14.45;9.23;;;15.10;99.90;;;;;;5097893;28;20032;-66
2021/10/20 05:03:50;;;;;;;13.13;10.00;;;15.20;99.90;;;;;;5100648;28;20500;-66
2021/10/20 05:06:16;;;;;;;14.40;10.82;;;15.30;99.90;;;;;;5097424;28;20054;-67
2021/10/20 05:08:41;;;;;;;11.10;9.40;;;15.20;99.90;;;;;;5099444;28;20044;-67
2021/10/20 05:11:07;;;;;;;16.67;11.38;;;15.30;99.90;;;;;;5104268;28;20039;-67
2021/10/20 05:13:33;;;;;;;13.32;9.77;;;15.30;99.90;;;;;;5100788;28;20044;-67
2021/10/20 05:15:58;;;;;;;13.07;11.07;;;15.30;99.90;;;;;;5100691;28;20040;-66
2021/10/20 05:18:24;;;;;;;16.38;11.32;;;15.30;99.90;;;;;;5103872;28;20038;-67
2021/10/20 05:20:49;;;;;;;16.50;11.52;;;15.30;99.90;;;;;;5100706;28;20044;-67
2021/10/20 05:23:16;;;;;;;16.30;12.52;;;15.30;99.90;;;;;;5095691;28;20024;-67
2021/10/20 05:25:41;;;;;;;13.40;11.68;;;15.30;99.90;;;;;;5095064;28;20048;-67
2021/10/20 05:28:07;;;;;;;14.52;11.80;;;15.30;99.90;;;;;;5081417;28;20050;-67
2021/10/20 05:30:33;;;;;;;13.60;11.30;;;15.30;99.90;;;;;;5126810;27;20032;-67
2021/10/20 05:32:59;;;;;;;15.13;10.80;;;15.30;99.90;;;;;;5095392;28;20046;-67
2021/10/20 05:35:24;;;;;;;11.98;10.75;;;15.40;99.90;;;;;;5094390;28;20035;-67
2021/10/20 05:37:51;;;;;;;13.77;12.23;;;15.40;99.90;;;;;;5099241;28;20050;-67
2021/10/20 05:40:21;;;;;;;13.25;11.90;;;15.40;99.90;;;;;;5130201;27;20039;-66
2021/10/20 05:42:47;;;;;;;15.85;11.18;;;15.40;99.90;;;;;;5099851;27;20039;-67
2021/10/20 05:45:14;;;;;;;14.30;11.35;;;15.40;99.90;;;;;;5099264;27;20035;-66
2021/10/20 05:47:40;;;;;;;13.85;11.90;;;15.40;99.90;;;;;;5097913;28;20118;-67
2021/10/20 05:50:06;;;;;;;16.65;12.07;;;15.40;99.90;;;;;;5099270;28;20115;-67
2021/10/20 05:52:31;;;;;;;14.15;12.38;;;15.50;99.90;;;;;;5101697;28;20177;-67
2021/10/20 05:54:58;;;;;;;12.05;10.88;;;15.50;99.90;;;;;;5094793;28;20566;-67
2021/10/20 05:57:23;;;;;;;19.52;11.43;;;15.60;99.90;;;;;;5096873;27;20044;-67
2021/10/20 05:59:49;;;;;;;16.15;10.82;;;15.60;99.90;;;;;;5097097;27;20083;-67
2021/10/20 06:02:14;;;;;;;18.55;11.15;;;15.60;99.90;;;;;;5129073;27;20046;-67
2021/10/20 06:04:41;;;;;;;12.95;10.85;;;15.60;99.90;;;;;;5096792;28;20050;-67
2021/10/20 06:07:06;;;;;;;19.27;10.93;;;15.60;99.90;;;;;;5099612;28;20039;-67
2021/10/20 06:09:34;;;;;;;21.88;10.48;;;15.70;99.90;;;;;;5095659;27;20040;-67
2021/10/20 06:12:00;;;;;;;14.43;10.65;;;15.70;99.90;;;;;;5096491;27;20051;-67
2021/10/20 06:14:27;;;;;;;13.52;10.77;;;15.80;99.90;;;;;;5100500;27;20044;-67
2021/10/20 06:16:53;;;;;;;13.55;10.73;;;15.70;99.90;;;;;;5123149;27;20130;-67
2021/10/20 06:19:18;;;;;;;11.82;10.65;;;15.70;99.90;;;;;;5097414;27;20038;-67
2021/10/20 06:21:44;;;;;;;11.48;10.27;;;15.80;99.90;;;;;;5098154;27;20043;-67
2021/10/20 06:24:10;;;;;;;13.23;10.98;;;15.80;99.90;;;;;;5097763;28;20048;-67
2021/10/20 06:26:36;;;;;;;13.68;10.60;;;15.70;99.90;;;;;;5100764;28;20141;-67
2021/10/20 06:29:02;;;;;;;17.83;12.05;;;15.80;99.90;;;;;;5104872;27;20524;-66
2021/10/20 06:31:28;;;;;;;14.80;11.70;;;15.80;99.90;;;;;;5106097;27;20038;-67
2021/10/20 06:33:55;;;;;;;17.02;12.52;;;15.80;99.90;;;;;;5101971;28;20028;-67
2021/10/20 06:36:29;;;;;;;16.10;12.43;;;15.90;99.90;;;;;;5101028;27;20044;-67
2021/10/20 06:38:56;;;;;;;15.77;11.43;;;15.80;99.90;;;;;;5102265;27;20552;-67
2021/10/20 06:41:22;;;;;;;15.98;12.43;;;15.80;99.90;;;;;;5129082;27;20141;-67
2021/10/20 06:43:48;;;;;;;16.35;11.73;;;15.70;99.90;;;;;;5106561;27;20464;-67
2021/10/20 06:46:14;;;;;;;15.90;11.98;;;15.70;99.90;;;;;;5104104;27;20093;-67
2021/10/20 06:48:39;;;;;;;13.32;11.30;;;15.70;99.90;;;;;;5104096;28;20042;-67
2021/10/20 06:51:06;;;;;;;19.83;13.05;;;15.70;99.90;;;;;;5104906;27;20051;-67
2021/10/20 06:53:32;;;;;;;14.38;11.02;;;15.70;99.90;;;;;;5104425;28;20028;-67
2021/10/20 06:55:58;;;;;;;13.85;12.13;;;15.70;99.90;;;;;;5098024;28;20093;-67
2021/10/20 06:58:24;;;;;;;14.00;10.35;;;15.70;99.90;;;;;;5099550;28;20047;-67
2021/10/20 07:00:49;;;;;;;15.13;10.18;;;15.70;99.90;;;;;;5103098;28;20047;-67
2021/10/20 07:03:18;;;;;;;12.68;10.60;;;15.70;99.90;;;;;;5103251;27;20043;-67
2021/10/20 07:05:44;;;;;;;13.52;9.82;;;15.70;99.90;;;;;;5128384;27;20039;-67
2021/10/20 07:08:09;;;;;;;14.07;11.20;;;15.70;99.90;;;;;;5099969;27;20059;-67
2021/10/20 07:10:36;;;;;;;12.43;9.60;;;15.60;99.90;;;;;;5105862;28;20031;-67
2021/10/20 07:13:05;;;;;;;12.77;10.23;;;15.60;99.90;;;;;;5124201;27;20118;-67
2021/10/20 07:15:31;;;;;;;10.98;9.88;;;15.60;99.90;;;;;;5101887;27;20039;-67
2021/10/20 07:17:56;;;;;;;13.50;9.93;;;15.60;99.90;;;;;;5104425;28;20043;-67
2021/10/20 07:20:22;;;;;;;15.60;10.38;;;15.60;99.90;;;;;;5103401;28;20085;-67
2021/10/20 07:22:48;;;;;;;11.20;9.60;;;15.60;99.90;;;;;;5104541;28;20425;-67
2021/10/20 07:25:17;;;;;;;10.00;8.95;;;15.60;99.90;;;;;;5099417;28;20046;-67
2021/10/20 07:27:43;;;;;;;10.20;8.90;;;15.70;99.90;;;;;;5102007;27;20164;-67
2021/10/20 07:30:11;;;;;;;10.18;9.18;;;15.70;99.90;;;;;;5100962;27;20042;-67
2021/10/20 07:32:39;;;;;;;11.13;9.35;;;15.70;99.90;;;;;;5130279;27;20122;-67
2021/10/20 07:35:06;;;;;;;14.75;9.07;;;15.70;99.90;;;;;;5100434;28;20039;-67
2021/10/20 07:37:32;;;;;;;11.82;8.05;;;15.80;99.90;;;;;;5100983;28;20651;-67
2021/10/20 07:39:58;;;;;;;10.23;8.80;;;15.70;99.90;;;;;;5103355;27;20130;-66
2021/10/20 07:42:24;;;;;;;11.40;8.23;;;15.80;99.90;;;;;;5100053;28;20136;-67
2021/10/20 07:44:50;;;;;;;9.75;8.75;;;15.80;99.90;;;;;;5102179;28;20490;-67
2021/10/20 07:47:17;;;;;;;10.10;9.13;;;15.90;99.90;;;;;;5102924;28;20040;-67
2021/10/20 07:49:42;;;;;;;10.75;8.70;;;15.90;99.90;;;;;;5102110;27;20054;-67
2021/10/20 07:52:08;;;;;;;11.48;9.43;;;15.90;99.90;;;;;;5101476;27;20036;-67
2021/10/20 07:54:34;;;;;;;12.00;9.30;;;15.90;99.90;;;;;;5128143;27;20043;-67
2021/10/20 07:57:00;;;;;;;11.77;9.63;;;15.80;99.90;;;;;;5098409;28;20393;-67
2021/10/20 07:59:26;;;;;;;10.02;8.57;;;15.90;99.90;;;;;;5099363;27;20044;-67
2021/10/20 08:01:52;;;;;;;11.00;8.45;;;15.80;99.90;;;;;;5097063;28;20035;-67
2021/10/20 08:04:17;;;;;;;11.20;8.35;;;15.80;99.90;;;;;;5098393;27;20043;-67
2021/10/20 08:06:43;;;;;;;8.77;7.88;;;15.90;99.90;;;;;;5100672;28;20043;-67
2021/10/20 08:09:09;;;;;;;11.48;8.55;;;15.80;99.90;;;;;;5099472;28;20118;-67
2021/10/20 08:11:35;;;;;;;10.93;8.88;;;15.80;99.90;;;;;;5105308;27;20111;-67
2021/10/20 08:14:03;;;;;;;11.43;8.07;;;15.90;99.90;;;;;;5098655;27;20088;-67
2021/10/20 08:16:29;;;;;;;9.18;7.85;;;15.90;99.90;;;;;;5106316;28;20040;-67
2021/10/20 08:18:54;;;;;;;9.93;7.95;;;16.00;99.90;;;;;;5103871;28;20047;-67
2021/10/20 08:21:20;;;;;;;9.52;7.65;;;16.00;99.90;;;;;;5099100;28;20102;-67
2021/10/20 08:23:46;;;;;;;9.95;7.75;;;16.00;99.90;;;;;;5102587;28;20035;-67
2021/10/20 08:26:12;;;;;;;8.52;7.03;;;16.10;99.90;;;;;;5101068;28;20039;-68
2021/10/20 08:28:38;;;;;;;11.23;7.80;;;16.10;99.90;;;;;;5100746;28;20023;-67
2021/10/20 08:31:04;;;;;;;9.32;7.10;;;16.20;99.90;;;;;;5106784;27;20418;-67
2021/10/20 08:33:30;;;;;;;10.50;6.78;;;16.10;99.90;;;;;;5101074;28;20059;-67
2021/10/20 08:35:56;;;;;;;10.43;6.72;;;16.10;99.90;;;;;;5100873;28;20509;-67
2021/10/20 08:38:21;;;;;;;9.15;7.05;;;16.10;99.90;;;;;;5102108;28;20046;-67
2021/10/20 08:40:47;;;;;;;7.40;6.70;;;16.10;99.90;;;;;;5102463;28;20039;-67
2021/10/20 08:43:19;;;;;;;11.55;6.60;;;16.10;99.90;;;;;;5099975;28;20546;-67
2021/10/20 08:45:46;;;;;;;9.18;5.93;;;16.10;99.90;;;;;;5102313;28;20032;-67
2021/10/20 08:48:21;;;;;;;8.45;5.85;;;16.10;99.90;;;;;;5101120;28;20032;-67
2021/10/20 08:50:55;;;;;;;6.73;6.10;;;16.10;99.90;;;;;;5098566;28;20051;-67
2021/10/20 08:53:21;;;;;;;8.57;6.15;;;16.10;99.90;;;;;;5100772;28;20085;-67
2021/10/20 08:55:48;;;;;;;6.82;6.05;;;16.10;99.90;;;;;;5096895;28;20032;-67
2021/10/20 08:58:15;;;;;;;6.80;6.07;;;16.10;99.90;;;;;;5099951;28;20093;-67
2021/10/20 09:00:41;;;;;;;9.25;5.60;;;16.10;99.90;;;;;;5103039;28;20039;-67
2021/10/20 09:03:06;;;;;;;8.63;5.82;;;16.20;99.90;;;;;;5101228;28;20066;-67
2021/10/20 09:05:32;;;;;;;6.60;5.65;;;16.20;99.90;;;;;;5101059;28;20083;-67
2021/10/20 09:07:58;;;;;;;5.95;5.45;;;16.30;99.90;;;;;;5101318;28;20047;-67
2021/10/20 09:10:27;;;;;;;6.68;5.50;;;16.30;99.90;;;;;;5098527;28;20477;-67
2021/10/20 09:12:56;;;;;;;7.63;5.60;;;16.30;99.90;;;;;;5100369;28;20481;-67
2021/10/20 09:15:27;;;;;;;8.80;6.22;;;16.20;99.90;;;;;;5099153;28;20109;-67
2021/10/20 09:17:57;;;;;;;11.88;5.95;;;16.20;99.90;;;;;;5102388;28;20153;-67
2021/10/20 09:20:25;;;;;;;11.35;6.45;;;16.20;99.90;;;;;;5104365;28;20493;-67
2021/10/20 09:23:01;;;;;;;8.48;6.55;;;16.10;99.90;;;;;;5104178;27;20040;-67
2021/10/20 09:25:47;;;;;;;9.63;6.93;;;16.10;99.90;;;;;;5104424;28;20071;-67
2021/10/20 09:28:23;;;;;;;7.00;6.13;;;16.10;99.90;;;;;;5102294;27;20040;-67
2021/10/20 09:30:50;;;;;;;7.53;5.47;;;16.10;99.90;;;;;;5098786;28;20032;-67
2021/10/20 09:33:16;;;;;;;10.13;7.05;;;16.10;99.90;;;;;;5105828;28;20080;-67
2021/10/20 09:35:42;;;;;;;7.00;5.82;;;16.20;99.90;;;;;;5107415;28;21746;-67
2021/10/20 09:38:08;;;;;;;9.57;6.50;;;16.30;99.90;;;;;;5104153;27;20061;-67
2021/10/20 09:40:38;;;;;;;11.23;7.15;;;16.30;99.90;;;;;;5103394;28;20074;-67
2021/10/20 09:43:06;;;;;;;13.85;6.80;;;16.30;99.90;;;;;;5103688;28;20088;-67
2021/10/20 09:45:39;;;;;;;7.13;6.43;;;16.20;99.90;;;;;;5104689;27;20068;-67
2021/10/20 09:48:17;;;;;;;8.85;6.38;;;16.30;99.90;;;;;;5131547;27;20040;-67
2021/10/20 09:51:06;;;;;;;12.15;6.70;;;16.30;99.90;;;;;;5105745;27;20120;-67
2021/10/20 09:53:35;;;;;;;7.60;6.30;;;16.30;99.90;;;;;;5103368;28;20044;-67
2021/10/20 09:56:25;;;;;;;8.00;6.97;;;16.30;99.90;;;;;;5129929;27;20264;-67
2021/10/20 09:58:52;;;;;;;11.23;6.65;;;16.40;99.90;;;;;;5102496;28;20052;-67
2021/10/20 10:01:20;;;;;;;9.45;6.68;;;16.50;99.90;;;;;;5100756;27;20499;-67
2021/10/20 10:03:47;;;;;;;9.23;6.65;;;16.50;99.90;;;;;;5128998;27;20047;-67
2021/10/20 10:06:13;;;;;;;8.35;6.30;;;16.60;99.90;;;;;;5103304;27;20051;-68
2021/10/20 10:08:38;;;;;;;10.93;6.95;;;16.50;99.90;;;;;;5105530;27;20122;-67
2021/10/20 10:11:04;;;;;;;11.30;7.20;;;16.60;99.90;;;;;;5102373;28;20390;-67
2021/10/20 10:13:35;;;;;;;8.02;6.63;;;16.60;99.90;;;;;;5098618;28;20032;-67
2021/10/20 10:16:02;;;;;;;7.95;6.97;;;16.70;99.90;;;;;;5103379;28;20040;-67
2021/10/20 10:18:28;;;;;;;6.68;5.97;;;16.80;99.90;;;;;;5104061;27;20040;-67
2021/10/20 10:20:53;;;;;;;7.30;5.68;;;16.90;99.90;;;;;;5103870;27;20114;-67
2021/10/20 10:23:21;;;;;;;6.57;5.70;;;16.90;99.90;;;;;;5102348;27;20043;-67
2021/10/20 10:26:00;;;;;;;9.63;6.10;;;17.10;99.90;;;;;;5102896;27;20126;-67
2021/10/20 10:28:29;;;;;;;7.72;6.38;;;17.10;99.90;;;;;;5103298;28;20105;-67
2021/10/20 10:31:07;;;;;;;7.68;6.10;;;17.10;99.90;;;;;;5102007;27;21446;-67
2021/10/20 10:33:38;;;;;;;6.93;6.20;;;17.00;99.90;;;;;;5099615;28;20067;-67
2021/10/20 10:36:23;;;;;;;6.95;6.25;;;17.00;99.90;;;;;;5097032;28;20039;-67
2021/10/20 10:39:00;;;;;;;10.53;5.90;;;17.00;99.90;;;;;;5097309;28;20043;-67
2021/10/20 10:41:27;;;;;;;6.78;5.72;;;17.00;99.90;;;;;;5091659;28;20298;-68
2021/10/20 10:44:07;;;;;;;7.10;6.10;;;17.00;99.90;;;;;;5095713;28;20047;-68
2021/10/20 10:46:39;;;;;;;8.93;5.22;;;17.10;99.90;;;;;;5087471;28;20606;-67
2021/10/20 10:49:25;;;;;;;8.13;5.72;;;17.10;99.90;;;;;;5095424;27;20039;-67
2021/10/20 10:52:20;;;;;;;12.88;6.72;;;17.10;99.90;;;;;;5077580;28;20092;-67
2021/10/20 10:54:51;;;;;;;10.07;6.35;;;17.00;99.90;;;;;;5095474;27;20070;-67
2021/10/20 10:57:17;;;;;;;8.50;6.32;;;16.90;99.90;;;;;;5093374;28;20047;-67
2021/10/20 10:59:54;;;;;;;7.60;6.90;;;16.90;99.90;;;;;;5095058;27;20044;-67
2021/10/20 11:02:44;;;;;;;8.40;7.60;;;16.80;99.90;;;;;;5097440;27;20140;-68
2021/10/20 11:05:10;;;;;;;8.50;7.18;;;16.80;99.90;;;;;;5099904;28;20054;-68
2021/10/20 11:07:36;;;;;;;8.60;7.30;;;16.60;99.90;;;;;;5128883;27;20072;-68
2021/10/20 11:10:04;;;;;;;10.85;7.68;;;16.50;99.90;;;;;;5095958;27;20039;-68
2021/10/20 11:12:31;;;;;;;10.27;8.43;;;16.40;99.90;;;;;;5094059;28;20044;-68
2021/10/20 11:14:58;;;;;;;8.88;6.85;;;16.40;99.90;;;;;;5096452;28;20481;-68
2021/10/20 11:17:23;;;;;;;10.05;7.70;;;16.30;99.90;;;;;;5095499;28;20427;-67
2021/10/20 11:19:50;;;;;;;12.65;8.23;;;16.30;99.90;;;;;;5096894;27;20043;-67
2021/10/20 11:22:17;;;;;;;11.40;8.18;;;16.30;99.90;;;;;;5092910;28;20101;-67
2021/10/20 11:24:45;;;;;;;9.10;7.30;;;16.30;99.90;;;;;;5096384;28;20053;-67
2021/10/20 11:27:11;;;;;;;13.27;7.75;;;16.30;99.90;;;;;;5097371;28;20031;-67
2021/10/20 11:29:45;;;;;;;7.78;7.03;;;16.30;99.90;;;;;;5095501;28;20060;-67
2021/10/20 11:32:14;;;;;;;7.95;7.15;;;16.30;99.90;;;;;;5095861;27;20031;-67
2021/10/20 11:34:43;;;;;;;7.47;6.72;;;16.40;99.90;;;;;;5097653;27;20039;-67
2021/10/20 11:37:10;;;;;;;7.10;6.25;;;16.40;99.90;;;;;;5093867;27;20051;-67
2021/10/20 11:39:37;;;;;;;12.82;6.10;;;16.40;99.90;;;;;;5093613;28;20129;-67
2021/10/20 11:42:06;;;;;;;8.45;6.15;;;16.40;99.90;;;;;;5093932;28;20044;-67
2021/10/20 11:44:35;;;;;;;7.63;6.07;;;16.50;99.90;;;;;;5096753;27;20044;-67
2021/10/20 11:47:06;;;;;;;9.48;6.38;;;16.50;99.90;;;;;;5096172;27;20040;-67
2021/10/20 11:49:35;;;;;;;10.95;5.50;;;16.50;99.90;;;;;;5096130;28;20154;-68
2021/10/20 11:52:05;;;;;;;7.32;5.20;;;16.50;99.90;;;;;;5093647;28;20043;-68
2021/10/20 11:54:31;;;;;;;9.88;5.57;;;16.50;99.90;;;;;;5096079;27;20085;-67
2021/10/20 11:56:59;;;;;;;7.72;5.50;;;16.50;99.90;;;;;;5093950;27;20066;-67
2021/10/20 11:59:29;;;;;;;8.60;5.07;;;16.60;99.90;;;;;;5095393;28;20036;-68
2021/10/20 12:01:56;;;;;;;10.57;5.65;;;16.60;99.90;;;;;;5093582;28;20079;-68
2021/10/20 12:04:24;;;;;;;6.45;5.00;;;16.60;99.90;;;;;;5122416;27;20050;-67
2021/10/20 12:06:59;;;;;;;6.00;4.97;;;16.60;99.90;;;;;;5094336;28;20078;-68
2021/10/20 12:09:28;;;;;;;9.68;5.20;;;16.70;99.90;;;;;;5090614;28;20129;-67
2021/10/20 12:11:56;;;;;;;10.95;4.45;;;16.70;99.90;;;;;;5093303;28;20066;-67
2021/10/20 12:14:24;;;;;;;9.07;5.03;;;16.70;99.90;;;;;;5093601;28;20023;-67
2021/10/20 12:16:51;;;;;;;8.25;5.05;;;16.70;99.90;;;;;;5093022;28;20044;-67
2021/10/20 12:19:21;;;;;;;8.18;4.85;;;16.70;99.90;;;;;;5093419;28;20113;-67
2021/10/20 12:21:48;;;;;;;6.00;5.15;;;16.80;99.90;;;;;;5092508;28;20124;-67
2021/10/20 12:24:16;;;;;;;11.35;4.45;;;16.80;99.90;;;;;;5092939;28;20047;-67
2021/10/20 12:26:42;;;;;;;6.57;4.10;;;16.80;99.90;;;;;;5095820;28;20040;-67
2021/10/20 12:29:10;;;;;;;11.70;4.35;;;16.80;99.90;;;;;;5094579;28;20055;-67
2021/10/20 12:31:37;;;;;;;8.88;4.40;;;16.90;99.90;;;;;;5093929;28;20071;-67
2021/10/20 12:34:04;;;;;;;6.00;3.88;;;16.90;99.90;;;;;;5093102;28;20153;-68
2021/10/20 12:36:31;;;;;;;7.20;4.20;;;17.00;99.90;;;;;;5091161;28;20051;-67
2021/10/20 12:39:00;;;;;;;8.45;4.10;;;17.00;99.90;;;;;;5095281;28;20078;-67